Time;durP1;ratioP1;P1;durP2;ratioP2;P2;SDS_P1;SDS_P2;PMS_P1;PMS_P2;Temp;Humidity;BMP_temperature;BMP_pressure;BME280_temperature;BME280_humidity;BME280_pressure;Samples;Min_cycle;Max_cycle;Signal;HPM_P1;HPM_P2
2023/07/31 00:00:09;;;;;;;4.30;2.33;;;15.20;99.90;;;;;;5075022;28;20201;-76
2023/07/31 00:02:35;;;;;;;6.70;2.50;;;15.20;99.90;;;;;;5075343;28;20205;-75
2023/07/31 00:05:02;;;;;;;6.73;2.63;;;15.20;99.90;;;;;;5075012;28;20197;-75
2023/07/31 00:07:29;;;;;;;5.63;2.40;;;15.20;99.90;;;;;;5074941;28;20212;-75
2023/07/31 00:09:56;;;;;;;4.70;2.83;;;15.20;99.90;;;;;;5074760;28;20653;-75
2023/07/31 00:12:24;;;;;;;5.70;2.60;;;15.20;99.90;;;;;;5074713;28;20247;-76
2023/07/31 00:14:51;;;;;;;4.10;2.60;;;15.10;99.90;;;;;;5074688;28;20253;-75
2023/07/31 00:17:18;;;;;;;4.33;2.33;;;15.10;99.90;;;;;;5074565;28;20193;-75
2023/07/31 00:19:46;;;;;;;6.30;2.50;;;15.10;99.90;;;;;;5074864;28;20200;-76
2023/07/31 00:22:12;;;;;;;4.97;2.70;;;15.10;99.90;;;;;;5079995;28;20223;-75
2023/07/31 00:24:39;;;;;;;6.10;3.00;;;15.10;99.90;;;;;;5074616;28;20246;-75
2023/07/31 00:27:06;;;;;;;5.53;2.80;;;15.10;99.90;;;;;;5074452;28;20606;-75
2023/07/31 00:29:34;;;;;;;5.07;2.80;;;15.00;99.90;;;;;;5074378;28;20682;-75
2023/07/31 00:32:00;;;;;;;5.10;2.40;;;15.00;99.90;;;;;;5074585;28;20259;-75
2023/07/31 00:34:27;;;;;;;3.93;2.30;;;14.90;99.90;;;;;;5074418;28;20250;-75
2023/07/31 00:36:54;;;;;;;2.87;2.43;;;14.90;99.90;;;;;;5074242;28;20255;-76
2023/07/31 00:39:20;;;;;;;5.00;2.63;;;14.90;99.90;;;;;;5074012;28;20700;-75
2023/07/31 00:41:47;;;;;;;5.97;2.50;;;14.80;99.90;;;;;;5074034;28;20193;-75
2023/07/31 00:44:14;;;;;;;4.37;2.50;;;14.80;99.90;;;;;;5074078;28;20798;-75
2023/07/31 00:46:42;;;;;;;6.70;2.40;;;14.80;99.90;;;;;;5074044;28;20205;-75
2023/07/31 00:49:09;;;;;;;7.90;2.50;;;14.80;99.90;;;;;;5074135;28;20254;-75
2023/07/31 00:51:36;;;;;;;7.73;2.63;;;14.80;99.90;;;;;;5074044;28;20201;-76
2023/07/31 00:54:03;;;;;;;5.10;3.00;;;14.80;99.90;;;;;;5073974;28;20223;-75
2023/07/31 00:56:30;;;;;;;4.07;2.63;;;14.90;99.90;;;;;;5073539;28;20228;-75
2023/07/31 00:58:57;;;;;;;5.50;2.50;;;14.90;99.90;;;;;;5073998;28;20221;-76
2023/07/31 01:01:23;;;;;;;6.63;2.40;;;15.00;99.90;;;;;;5073894;28;20231;-75
2023/07/31 01:03:53;;;;;;;3.87;2.13;;;15.00;99.90;;;;;;5073887;28;20197;-76
2023/07/31 01:06:29;;;;;;;4.30;2.40;;;15.00;99.90;;;;;;5073724;28;20283;-75
2023/07/31 01:09:02;;;;;;;4.33;2.37;;;15.10;99.90;;;;;;5073534;28;20200;-75
2023/07/31 01:11:31;;;;;;;5.87;2.80;;;15.10;99.90;;;;;;5073758;28;20197;-75
2023/07/31 01:13:59;;;;;;;5.80;2.53;;;15.20;99.90;;;;;;5073739;28;20247;-76
2023/07/31 01:16:26;;;;;;;4.50;2.50;;;15.20;99.90;;;;;;5073483;28;20333;-75
2023/07/31 01:18:54;;;;;;;5.27;2.77;;;15.30;99.90;;;;;;5073424;28;20217;-75
2023/07/31 01:21:54;;;;;;;6.30;2.40;;;15.30;99.90;;;;;;5073523;28;20197;-74
2023/07/31 01:24:29;;;;;;;4.53;2.40;;;15.40;99.90;;;;;;5073694;28;20201;-75
2023/07/31 01:27:04;;;;;;;3.90;2.40;;;15.40;99.90;;;;;;5073367;28;20196;-75
2023/07/31 01:29:39;;;;;;;7.90;2.67;;;15.40;99.90;;;;;;5073188;28;20624;-75
2023/07/31 01:32:08;;;;;;;4.77;2.40;;;15.40;99.90;;;;;;5073165;28;20218;-75
2023/07/31 01:34:36;;;;;;;7.07;2.30;;;15.40;99.90;;;;;;5073359;28;20243;-75
2023/07/31 01:37:03;;;;;;;5.73;2.43;;;15.40;99.90;;;;;;5073365;28;20261;-75
2023/07/31 01:39:30;;;;;;;5.00;2.27;;;15.30;99.90;;;;;;5073096;28;20619;-75
2023/07/31 01:41:57;;;;;;;5.47;2.53;;;15.40;99.90;;;;;;5073083;28;20254;-75
2023/07/31 01:44:24;;;;;;;5.13;2.50;;;15.40;99.90;;;;;;5072411;28;20262;-75
2023/07/31 01:46:51;;;;;;;7.13;2.70;;;15.40;99.90;;;;;;5073195;28;20196;-76
2023/07/31 01:49:17;;;;;;;4.63;2.40;;;15.50;99.90;;;;;;5073203;28;20254;-75
2023/07/31 01:51:44;;;;;;;4.13;2.00;;;15.50;99.90;;;;;;5073008;28;20197;-76
2023/07/31 01:54:11;;;;;;;4.57;2.53;;;15.50;99.90;;;;;;5073069;28;20251;-76
2023/07/31 01:56:37;;;;;;;5.63;2.50;;;15.50;99.90;;;;;;5072785;28;20247;-75
2023/07/31 01:59:05;;;;;;;5.47;2.53;;;15.40;99.90;;;;;;5072752;28;20605;-76
2023/07/31 02:01:32;;;;;;;4.33;2.33;;;15.40;99.90;;;;;;5073113;28;20197;-75
2023/07/31 02:03:58;;;;;;;5.37;2.57;;;15.50;99.90;;;;;;5072953;28;20542;-75
2023/07/31 02:06:25;;;;;;;5.30;2.67;;;15.50;99.90;;;;;;5072904;28;20220;-75
2023/07/31 02:08:52;;;;;;;6.73;2.80;;;15.40;99.90;;;;;;5072894;28;20201;-75
2023/07/31 02:11:18;;;;;;;4.43;2.50;;;15.40;99.90;;;;;;5072721;28;20258;-75
2023/07/31 02:13:45;;;;;;;4.93;2.87;;;15.30;99.90;;;;;;5072953;28;20197;-75
2023/07/31 02:16:13;;;;;;;5.07;2.30;;;15.30;99.90;;;;;;5073024;28;20193;-75
2023/07/31 02:18:39;;;;;;;5.90;2.53;;;15.20;99.90;;;;;;5072854;28;20221;-75
2023/07/31 02:21:06;;;;;;;5.17;2.40;;;15.10;99.90;;;;;;5072960;28;20278;-75
2023/07/31 02:23:33;;;;;;;3.77;2.50;;;15.00;99.90;;;;;;5072909;28;20247;-75
2023/07/31 02:25:59;;;;;;;6.33;2.57;;;15.00;99.90;;;;;;5072656;28;20197;-75
2023/07/31 02:28:26;;;;;;;5.03;2.97;;;14.90;99.90;;;;;;5072638;28;20604;-75
2023/07/31 02:30:53;;;;;;;3.33;2.30;;;14.80;99.90;;;;;;5072827;28;20229;-75
2023/07/31 02:33:21;;;;;;;7.23;2.90;;;14.80;99.90;;;;;;5072772;28;20205;-75
2023/07/31 02:35:48;;;;;;;3.87;2.70;;;14.80;99.90;;;;;;5072616;28;20588;-75
2023/07/31 02:38:14;;;;;;;7.17;2.73;;;14.80;99.90;;;;;;5072544;28;20201;-75
2023/07/31 02:40:41;;;;;;;4.50;2.60;;;14.80;99.90;;;;;;5072403;28;20201;-75
2023/07/31 02:43:08;;;;;;;5.90;2.90;;;14.70;99.90;;;;;;5072677;28;20207;-75
2023/07/31 02:45:35;;;;;;;7.53;2.70;;;14.80;99.90;;;;;;5072568;28;20270;-75
2023/07/31 02:48:01;;;;;;;5.30;2.73;;;14.80;99.90;;;;;;5072375;28;20243;-75
2023/07/31 02:50:29;;;;;;;4.57;2.80;;;14.70;99.90;;;;;;5072447;28;20263;-76
2023/07/31 02:52:56;;;;;;;3.53;2.30;;;14.70;99.90;;;;;;5072318;28;20205;-75
2023/07/31 02:55:23;;;;;;;3.53;2.53;;;14.60;99.90;;;;;;5072269;28;20745;-75
2023/07/31 02:57:49;;;;;;;4.93;2.70;;;14.70;99.90;;;;;;5075036;28;20232;-75
2023/07/31 03:00:16;;;;;;;5.73;2.93;;;14.70;99.90;;;;;;5076122;28;20274;-75
2023/07/31 03:02:43;;;;;;;5.07;2.73;;;14.70;99.90;;;;;;5076167;28;20201;-75
2023/07/31 03:05:09;;;;;;;4.43;2.80;;;14.80;99.90;;;;;;5075986;28;20197;-75
2023/07/31 03:07:37;;;;;;;6.07;2.80;;;14.80;99.90;;;;;;5075868;28;20257;-75
2023/07/31 03:10:05;;;;;;;4.00;2.67;;;14.80;99.90;;;;;;5075841;28;20610;-76
2023/07/31 03:12:31;;;;;;;6.90;2.90;;;14.80;99.90;;;;;;5075930;28;20201;-76
2023/07/31 03:14:58;;;;;;;4.90;2.90;;;14.80;99.90;;;;;;5075859;28;20251;-75
2023/07/31 03:17:24;;;;;;;6.50;2.80;;;14.80;99.90;;;;;;5075805;28;20200;-75
2023/07/31 03:19:51;;;;;;;4.40;2.80;;;14.80;99.90;;;;;;5075682;28;20225;-75
2023/07/31 03:22:18;;;;;;;8.50;2.60;;;14.80;99.90;;;;;;5075513;28;20197;-75
2023/07/31 03:24:45;;;;;;;5.53;2.73;;;14.80;99.90;;;;;;5075840;28;20205;-76
2023/07/31 03:27:12;;;;;;;5.17;2.70;;;14.80;99.90;;;;;;5075667;28;20239;-75
2023/07/31 03:29:39;;;;;;;4.87;2.73;;;14.80;99.90;;;;;;5075531;28;20247;-75
2023/07/31 03:32:06;;;;;;;6.23;2.70;;;14.80;99.90;;;;;;5075450;28;20197;-76
2023/07/31 03:34:33;;;;;;;8.03;2.83;;;14.70;99.90;;;;;;5075470;28;20232;-75
2023/07/31 03:37:00;;;;;;;5.33;2.70;;;14.80;99.90;;;;;;5075298;28;20607;-75
2023/07/31 03:39:27;;;;;;;3.40;2.50;;;14.70;99.90;;;;;;5075449;28;20221;-75
2023/07/31 03:41:55;;;;;;;5.10;2.90;;;14.70;99.90;;;;;;5075258;28;20194;-75
2023/07/31 03:44:21;;;;;;;5.93;2.73;;;14.80;99.90;;;;;;5075221;28;20197;-75
2023/07/31 03:46:48;;;;;;;4.53;2.63;;;14.70;99.90;;;;;;5075179;28;20730;-75
2023/07/31 03:49:14;;;;;;;5.47;3.03;;;14.70;99.90;;;;;;5075152;28;20246;-75
2023/07/31 03:51:41;;;;;;;3.73;2.80;;;14.70;99.90;;;;;;5075105;28;20645;-75
2023/07/31 03:54:08;;;;;;;4.37;2.90;;;14.60;99.90;;;;;;5075002;28;20221;-76
2023/07/31 03:56:35;;;;;;;5.03;2.60;;;14.70;99.90;;;;;;5074955;28;20229;-75
2023/07/31 03:59:03;;;;;;;6.03;2.80;;;14.60;99.90;;;;;;5075035;28;20228;-75
2023/07/31 04:01:29;;;;;;;6.07;3.37;;;14.60;99.90;;;;;;5074914;28;20243;-75
2023/07/31 04:03:56;;;;;;;4.30;2.70;;;14.50;99.90;;;;;;5074774;28;20194;-75
2023/07/31 04:06:22;;;;;;;6.63;3.07;;;14.50;99.90;;;;;;5075026;28;20317;-75
2023/07/31 04:08:49;;;;;;;4.63;2.80;;;14.50;99.90;;;;;;5074478;28;20204;-75
2023/07/31 04:11:16;;;;;;;5.77;2.67;;;14.50;99.90;;;;;;5074661;28;20599;-75
2023/07/31 04:13:42;;;;;;;7.13;3.37;;;14.50;99.90;;;;;;5074580;28;20197;-75
2023/07/31 04:16:10;;;;;;;5.73;2.70;;;14.50;99.90;;;;;;5074611;28;20227;-75
2023/07/31 04:18:37;;;;;;;4.43;2.90;;;14.60;99.90;;;;;;5074324;28;20201;-75
2023/07/31 04:21:03;;;;;;;6.77;2.87;;;14.60;99.90;;;;;;5074773;28;20201;-75
2023/07/31 04:23:30;;;;;;;4.87;2.90;;;14.60;99.90;;;;;;5074680;28;20243;-75
2023/07/31 04:25:57;;;;;;;6.40;3.10;;;14.60;99.90;;;;;;5074559;28;20259;-75
2023/07/31 04:28:25;;;;;;;7.43;2.90;;;14.60;99.90;;;;;;5074417;28;20197;-75
2023/07/31 04:30:52;;;;;;;4.50;2.83;;;14.60;99.90;;;;;;5074316;28;20266;-75
2023/07/31 04:33:20;;;;;;;4.27;2.50;;;14.60;99.90;;;;;;5074039;28;20196;-75
2023/07/31 04:35:52;;;;;;;5.37;3.00;;;14.70;99.90;;;;;;5074380;28;20197;-75
2023/07/31 04:38:18;;;;;;;5.37;2.90;;;14.80;99.90;;;;;;5074156;28;20624;-75
2023/07/31 04:40:45;;;;;;;4.43;2.83;;;14.90;99.90;;;;;;5073904;28;20749;-75
2023/07/31 04:43:12;;;;;;;7.00;3.00;;;15.10;99.90;;;;;;5073992;28;20193;-75
2023/07/31 04:45:38;;;;;;;7.93;3.10;;;15.20;99.90;;;;;;5073822;28;20201;-75
2023/07/31 04:48:05;;;;;;;6.40;3.07;;;15.30;99.90;;;;;;5074130;28;20247;-75
2023/07/31 04:50:33;;;;;;;5.43;2.67;;;15.30;99.90;;;;;;5073810;28;20599;-75
2023/07/31 04:53:00;;;;;;;6.23;3.40;;;15.30;99.90;;;;;;5073853;28;20263;-76
2023/07/31 04:55:27;;;;;;;5.77;3.10;;;15.40;99.90;;;;;;5073769;28;20242;-75
2023/07/31 04:57:53;;;;;;;4.53;2.60;;;15.40;99.90;;;;;;5073422;28;20727;-75
2023/07/31 05:00:20;;;;;;;5.30;2.50;;;15.50;99.90;;;;;;5073077;28;20237;-76
2023/07/31 05:02:47;;;;;;;7.33;3.23;;;15.70;99.90;;;;;;5073453;28;20656;-75
2023/07/31 05:05:13;;;;;;;5.77;2.83;;;15.70;99.90;;;;;;5073580;28;20196;-75
2023/07/31 05:07:41;;;;;;;4.67;2.60;;;15.80;99.90;;;;;;5073467;28;20254;-75
2023/07/31 05:10:09;;;;;;;5.83;2.63;;;15.90;99.90;;;;;;5073379;28;20200;-75
2023/07/31 05:12:35;;;;;;;4.03;2.60;;;15.90;99.90;;;;;;5073212;28;20247;-75
2023/07/31 05:15:02;;;;;;;5.03;2.63;;;16.10;99.90;;;;;;5073230;28;20719;-75
2023/07/31 05:17:29;;;;;;;6.20;2.90;;;16.10;99.90;;;;;;5073496;28;20208;-76
2023/07/31 05:19:55;;;;;;;6.07;2.70;;;16.10;99.90;;;;;;5072459;28;20225;-75
2023/07/31 05:22:22;;;;;;;6.43;2.60;;;16.10;99.90;;;;;;5073226;28;20250;-75
2023/07/31 05:24:50;;;;;;;5.57;3.03;;;16.30;99.90;;;;;;5073120;28;20258;-75
2023/07/31 05:27:18;;;;;;;3.37;2.57;;;16.30;99.90;;;;;;5073087;28;20197;-75
2023/07/31 05:29:45;;;;;;;3.53;2.50;;;16.30;99.90;;;;;;5073246;28;20197;-75
2023/07/31 05:32:11;;;;;;;6.10;2.67;;;16.30;99.90;;;;;;5073260;28;20197;-75
2023/07/31 05:34:38;;;;;;;5.83;2.80;;;16.40;99.90;;;;;;5073174;28;20349;-75
2023/07/31 05:37:05;;;;;;;4.50;2.40;;;16.40;99.90;;;;;;5072871;28;20262;-75
2023/07/31 05:39:32;;;;;;;5.20;2.50;;;16.50;99.90;;;;;;5072852;28;20278;-75
2023/07/31 05:42:00;;;;;;;6.47;2.60;;;16.70;99.90;;;;;;5072799;28;20208;-75
2023/07/31 05:44:26;;;;;;;4.70;2.60;;;16.80;99.90;;;;;;5072656;28;20661;-75
2023/07/31 05:46:53;;;;;;;3.60;2.58;;;16.90;99.90;;;;;;5072792;28;20201;-75
2023/07/31 05:49:20;;;;;;;4.60;2.78;;;17.00;99.90;;;;;;5072698;28;20200;-75
2023/07/31 05:51:46;;;;;;;6.85;2.72;;;17.10;99.90;;;;;;5072376;28;20254;-75
2023/07/31 05:54:13;;;;;;;6.30;2.67;;;17.00;99.90;;;;;;5072643;28;20193;-75
2023/07/31 05:56:39;;;;;;;5.65;2.90;;;17.10;99.90;;;;;;5072703;28;20232;-75
2023/07/31 05:59:09;;;;;;;3.05;2.22;;;17.10;99.90;;;;;;5072759;28;20197;-75
2023/07/31 06:01:36;;;;;;;4.82;2.75;;;17.20;99.90;;;;;;5072740;28;20192;-75
2023/07/31 06:04:03;;;;;;;3.35;2.28;;;17.20;99.90;;;;;;5072768;28;20247;-75
2023/07/31 06:06:29;;;;;;;5.60;2.28;;;17.40;99.90;;;;;;5072576;28;20657;-75
2023/07/31 06:08:56;;;;;;;4.43;2.78;;;17.50;99.90;;;;;;5072676;28;20197;-75
2023/07/31 06:11:23;;;;;;;6.53;2.97;;;17.60;99.90;;;;;;5072615;28;20292;-75
2023/07/31 06:13:50;;;;;;;6.03;3.05;;;17.60;99.90;;;;;;5072807;28;20192;-75
2023/07/31 06:16:18;;;;;;;4.95;2.47;;;17.60;99.90;;;;;;5072564;28;20193;-75
2023/07/31 06:18:44;;;;;;;6.78;2.60;;;17.60;99.90;;;;;;5072681;28;20197;-75
2023/07/31 06:21:11;;;;;;;5.28;2.80;;;17.60;99.90;;;;;;5072391;28;20282;-75
2023/07/31 06:23:38;;;;;;;4.25;2.72;;;17.70;99.90;;;;;;5072372;28;20640;-75
2023/07/31 06:26:05;;;;;;;5.72;2.75;;;17.80;99.90;;;;;;5072576;28;20200;-75
2023/07/31 06:28:32;;;;;;;7.97;3.05;;;17.90;99.90;;;;;;5072552;28;20192;-75
2023/07/31 06:31:00;;;;;;;6.10;3.05;;;17.70;99.90;;;;;;5073943;28;20208;-76
2023/07/31 06:33:28;;;;;;;4.78;2.80;;;17.80;99.90;;;;;;5076385;28;20197;-75
2023/07/31 06:35:55;;;;;;;4.18;2.70;;;17.70;99.90;;;;;;5076293;28;20291;-75
2023/07/31 06:38:24;;;;;;;4.80;2.97;;;17.70;99.90;;;;;;5076524;28;20246;-75
2023/07/31 06:40:51;;;;;;;5.65;2.72;;;17.70;99.90;;;;;;5076424;28;20696;-75
2023/07/31 06:43:18;;;;;;;6.05;2.85;;;17.80;99.90;;;;;;5076289;28;20204;-75
2023/07/31 06:45:45;;;;;;;5.20;2.85;;;17.90;99.90;;;;;;5076288;28;20270;-75
2023/07/31 06:48:12;;;;;;;7.05;2.72;;;18.00;99.90;;;;;;5076152;28;20207;-76
2023/07/31 06:50:40;;;;;;;6.03;2.80;;;17.90;99.90;;;;;;5076088;28;20197;-75
2023/07/31 06:53:06;;;;;;;5.70;2.50;;;18.00;99.90;;;;;;5075947;28;20530;-75
2023/07/31 06:55:33;;;;;;;4.70;2.80;;;17.90;99.90;;;;;;5076264;28;20250;-75
2023/07/31 06:58:00;;;;;;;3.40;2.47;;;17.90;99.90;;;;;;5075769;28;20285;-75
2023/07/31 07:00:28;;;;;;;9.48;2.55;;;18.10;99.90;;;;;;5075951;28;20274;-76
2023/07/31 07:02:55;;;;;;;6.15;3.08;;;18.20;99.90;;;;;;5075867;28;20204;-76
2023/07/31 07:05:21;;;;;;;7.10;2.97;;;18.30;99.90;;;;;;5076281;28;20201;-75
2023/07/31 07:07:50;;;;;;;4.13;2.65;;;18.10;99.90;;;;;;5076067;28;20201;-76
2023/07/31 07:10:17;;;;;;;5.40;2.70;;;18.20;99.90;;;;;;5075906;28;20259;-76
2023/07/31 07:12:43;;;;;;;5.28;3.08;;;18.10;99.90;;;;;;5075718;28;20686;-75
2023/07/31 07:15:10;;;;;;;4.63;2.78;;;18.20;99.90;;;;;;5075611;28;20203;-76
2023/07/31 07:17:37;;;;;;;5.18;2.80;;;18.20;99.90;;;;;;5075482;28;20262;-75
2023/07/31 07:20:05;;;;;;;4.65;2.85;;;18.40;99.90;;;;;;5075584;28;20627;-75
2023/07/31 07:22:31;;;;;;;4.22;2.72;;;18.40;99.90;;;;;;5075756;28;20205;-75
2023/07/31 07:24:59;;;;;;;3.42;2.50;;;18.50;99.90;;;;;;5075652;28;20200;-75
2023/07/31 07:27:26;;;;;;;4.50;2.60;;;18.70;99.90;;;;;;5075471;28;20205;-76
2023/07/31 07:29:53;;;;;;;4.57;2.80;;;18.40;99.90;;;;;;5075479;28;20247;-75
2023/07/31 07:32:20;;;;;;;7.05;2.88;;;18.40;99.90;;;;;;5075297;28;20205;-75
2023/07/31 07:34:48;;;;;;;4.55;2.95;;;18.60;99.90;;;;;;5075526;28;20200;-75
2023/07/31 07:37:14;;;;;;;7.00;2.83;;;18.70;99.90;;;;;;5075393;28;20248;-75
2023/07/31 07:39:42;;;;;;;4.93;2.85;;;18.70;99.90;;;;;;5075312;28;20410;-75
2023/07/31 07:42:10;;;;;;;5.03;3.03;;;18.70;99.90;;;;;;5074462;28;20197;-75
2023/07/31 07:44:36;;;;;;;4.70;2.92;;;18.80;99.90;;;;;;5075191;28;20197;-75
2023/07/31 07:47:05;;;;;;;9.63;3.25;;;18.40;99.90;;;;;;5075101;28;20204;-75
2023/07/31 07:49:32;;;;;;;4.65;3.13;;;18.50;99.90;;;;;;5075180;28;20676;-76
2023/07/31 07:51:59;;;;;;;7.15;3.38;;;18.70;99.90;;;;;;5075125;28;20710;-75
2023/07/31 07:54:25;;;;;;;5.90;2.90;;;18.50;99.90;;;;;;5074986;28;20196;-75
2023/07/31 07:56:52;;;;;;;5.80;3.00;;;18.90;99.90;;;;;;5074843;28;20229;-75
2023/07/31 07:59:20;;;;;;;6.55;3.10;;;19.10;99.90;;;;;;5074807;28;20251;-75
2023/07/31 08:01:46;;;;;;;9.00;3.28;;;19.10;99.90;;;;;;5075007;28;20631;-75
2023/07/31 08:04:13;;;;;;;8.30;3.42;;;19.20;99.90;;;;;;5074745;28;20661;-76
2023/07/31 08:06:40;;;;;;;5.15;3.28;;;19.00;99.90;;;;;;5074717;28;20201;-75
2023/07/31 08:09:08;;;;;;;6.80;2.75;;;19.00;99.90;;;;;;5074714;28;20201;-76
2023/07/31 08:11:34;;;;;;;5.55;2.67;;;18.90;99.90;;;;;;5074597;28;20656;-76
2023/07/31 08:14:01;;;;;;;5.38;3.03;;;19.00;99.90;;;;;;5074607;28;20197;-76
2023/07/31 08:16:29;;;;;;;7.22;3.17;;;19.00;99.90;;;;;;5074740;28;20257;-76
2023/07/31 08:18:56;;;;;;;7.28;2.75;;;19.20;99.90;;;;;;5074599;28;20197;-75
2023/07/31 08:21:22;;;;;;;6.75;3.05;;;19.20;99.90;;;;;;5074356;28;20285;-76
2023/07/31 08:23:49;;;;;;;9.70;3.10;;;19.20;99.90;;;;;;5074505;28;20193;-75
2023/07/31 08:26:17;;;;;;;5.97;3.05;;;19.40;99.90;;;;;;5074246;28;20205;-75
2023/07/31 08:28:43;;;;;;;4.15;2.72;;;19.40;99.90;;;;;;5074582;28;20196;-75
2023/07/31 08:31:10;;;;;;;6.70;3.25;;;19.10;99.90;;;;;;5074489;28;20218;-76
2023/07/31 08:33:38;;;;;;;5.75;3.10;;;19.40;99.90;;;;;;5074295;28;20197;-75
2023/07/31 08:36:05;;;;;;;4.00;2.65;;;19.20;99.90;;;;;;5074322;28;20202;-76
2023/07/31 08:38:32;;;;;;;5.38;2.92;;;19.20;99.90;;;;;;5073987;28;20208;-75
2023/07/31 08:40:59;;;;;;;4.60;3.05;;;19.40;99.90;;;;;;5073831;28;20222;-75
2023/07/31 08:43:27;;;;;;;5.85;3.35;;;19.40;99.90;;;;;;5074153;28;20197;-75
2023/07/31 08:45:54;;;;;;;6.60;2.75;;;19.60;99.90;;;;;;5073986;28;20197;-76
2023/07/31 08:48:22;;;;;;;7.40;3.00;;;19.60;99.90;;;;;;5073993;28;20197;-75
2023/07/31 08:50:50;;;;;;;9.55;3.50;;;19.80;99.90;;;;;;5073856;28;20297;-75
2023/07/31 08:53:17;;;;;;;7.13;3.28;;;19.80;99.90;;;;;;5073809;28;20204;-76
2023/07/31 08:55:45;;;;;;;6.18;3.20;;;19.80;99.90;;;;;;5073679;28;20259;-75
2023/07/31 08:58:13;;;;;;;7.28;3.45;;;19.70;99.90;;;;;;5073586;28;20237;-75
2023/07/31 09:00:41;;;;;;;9.55;3.40;;;20.10;99.90;;;;;;5073681;28;20225;-76
2023/07/31 09:03:10;;;;;;;7.78;3.10;;;20.30;99.90;;;;;;5073630;28;20197;-75
2023/07/31 09:05:40;;;;;;;5.95;3.05;;;20.10;99.90;;;;;;5073595;28;20254;-75
2023/07/31 09:08:10;;;;;;;5.38;3.03;;;20.60;99.90;;;;;;5073405;28;20197;-75
2023/07/31 09:10:40;;;;;;;6.20;3.22;;;21.10;99.90;;;;;;5073686;28;20208;-76
2023/07/31 09:13:07;;;;;;;6.25;3.13;;;21.00;99.90;;;;;;5073526;28;20238;-76
2023/07/31 09:15:34;;;;;;;6.93;3.10;;;20.90;99.90;;;;;;5073474;28;20247;-75
2023/07/31 09:18:02;;;;;;;7.88;2.95;;;20.70;99.90;;;;;;5073377;28;20200;-75
2023/07/31 09:20:29;;;;;;;6.28;3.38;;;20.60;99.90;;;;;;5073120;28;20244;-75
2023/07/31 09:22:56;;;;;;;8.52;3.40;;;20.50;99.90;;;;;;5073587;28;20254;-75
2023/07/31 09:25:25;;;;;;;6.43;3.22;;;20.90;99.90;;;;;;5073332;28;20282;-75
2023/07/31 09:27:55;;;;;;;5.93;3.30;;;21.00;99.90;;;;;;5073249;28;20251;-76
2023/07/31 09:30:22;;;;;;;4.50;2.88;;;20.40;99.90;;;;;;5073116;28;20231;-76
2023/07/31 09:32:50;;;;;;;6.60;3.15;;;20.90;99.90;;;;;;5073112;28;20208;-75
2023/07/31 09:35:21;;;;;;;4.63;2.88;;;20.70;99.90;;;;;;5072976;28;20596;-75
2023/07/31 09:37:52;;;;;;;8.35;3.50;;;21.20;99.90;;;;;;5073253;28;20200;-76
2023/07/31 09:40:31;;;;;;;7.05;3.40;;;21.30;99.90;;;;;;5072947;28;20204;-75
2023/07/31 09:42:58;;;;;;;5.20;2.85;;;21.40;99.90;;;;;;5072976;28;20197;-75
2023/07/31 09:45:25;;;;;;;9.05;3.10;;;21.10;99.90;;;;;;5072807;28;20196;-75
2023/07/31 09:47:52;;;;;;;5.50;3.00;;;21.10;99.90;;;;;;5073074;28;20208;-76
2023/07/31 09:50:21;;;;;;;7.57;2.70;;;21.90;99.90;;;;;;5073072;28;20314;-75
2023/07/31 09:52:48;;;;;;;5.05;2.78;;;21.70;99.90;;;;;;5072631;28;20298;-75
2023/07/31 09:55:15;;;;;;;5.25;2.78;;;22.10;99.90;;;;;;5072966;28;20197;-75
2023/07/31 09:57:46;;;;;;;4.45;2.80;;;21.60;99.90;;;;;;5072653;28;20225;-75
2023/07/31 10:00:14;;;;;;;6.07;2.92;;;21.90;99.90;;;;;;5072783;28;20251;-76
2023/07/31 10:02:41;;;;;;;5.07;3.15;;;21.80;99.90;;;;;;5072948;28;20220;-76
2023/07/31 10:05:09;;;;;;;5.88;3.00;;;21.80;99.90;;;;;;5072491;28;20280;-75
2023/07/31 10:07:39;;;;;;;8.00;2.90;;;22.60;99.90;;;;;;5072854;28;20246;-76
2023/07/31 10:10:07;;;;;;;6.97;3.38;;;22.70;99.90;;;;;;5072854;28;20201;-76
2023/07/31 10:12:35;;;;;;;7.35;2.97;;;22.70;99.90;;;;;;5072578;28;20201;-75
2023/07/31 10:15:04;;;;;;;4.28;2.78;;;22.10;99.90;;;;;;5072660;28;20724;-76
2023/07/31 10:17:31;;;;;;;3.78;2.80;;;22.20;99.90;;;;;;5072728;28;20266;-76
2023/07/31 10:20:01;;;;;;;5.47;2.85;;;22.20;99.90;;;;;;5072751;28;20303;-75
2023/07/31 10:22:28;;;;;;;4.43;2.88;;;22.80;99.90;;;;;;5072639;28;20228;-76
2023/07/31 10:24:58;;;;;;;4.05;2.63;;;22.50;99.90;;;;;;5072644;28;20196;-76
2023/07/31 10:27:25;;;;;;;3.92;2.58;;;22.80;99.90;;;;;;5072727;28;20641;-76
2023/07/31 10:29:53;;;;;;;4.50;2.67;;;22.40;99.90;;;;;;5072938;28;20201;-76
2023/07/31 10:32:22;;;;;;;5.53;2.67;;;22.50;99.90;;;;;;5076751;28;20264;-77
2023/07/31 10:34:51;;;;;;;7.10;3.17;;;22.20;99.90;;;;;;5073736;28;20269;-75
2023/07/31 10:37:21;;;;;;;5.15;3.10;;;22.00;99.90;;;;;;5072578;28;20200;-75
2023/07/31 10:40:00;;;;;;;8.10;3.08;;;21.90;99.90;;;;;;5072519;28;20205;-75
2023/07/31 10:42:32;;;;;;;8.10;3.25;;;22.40;99.90;;;;;;5072232;28;20791;-76
2023/07/31 10:45:00;;;;;;;5.65;3.17;;;22.30;99.90;;;;;;5072330;28;20802;-75
2023/07/31 10:47:28;;;;;;;4.68;3.10;;;22.20;99.90;;;;;;5072482;28;20254;-75
2023/07/31 10:50:13;;;;;;;3.83;3.00;;;21.80;99.90;;;;;;5072300;28;20552;-76
2023/07/31 10:52:40;;;;;;;4.35;2.80;;;22.00;99.90;;;;;;5072423;28;20279;-76
2023/07/31 10:55:25;;;;;;;7.05;3.00;;;22.10;99.90;;;;;;5072405;28;20259;-76
2023/07/31 10:57:51;;;;;;;4.35;3.08;;;22.20;99.90;;;;;;5072190;28;20229;-76
2023/07/31 11:00:24;;;;;;;8.75;3.55;;;22.30;99.90;;;;;;5072216;28;20279;-76
2023/07/31 11:03:03;;;;;;;7.07;3.22;;;22.00;99.90;;;;;;5072034;28;20232;-75
2023/07/31 11:05:50;;;;;;;6.47;2.83;;;21.90;99.90;;;;;;5072263;28;20708;-76
2023/07/31 11:08:20;;;;;;;5.63;3.50;;;22.00;99.90;;;;;;5072237;28;20351;-75
2023/07/31 11:10:48;;;;;;;5.20;3.08;;;22.00;99.90;;;;;;5072131;28;20204;-76
2023/07/31 11:13:15;;;;;;;7.18;3.10;;;22.00;99.90;;;;;;5071934;28;20621;-75
2023/07/31 11:15:42;;;;;;;4.45;3.00;;;22.30;99.90;;;;;;5072059;28;20200;-76
2023/07/31 11:18:11;;;;;;;6.95;3.13;;;23.00;99.90;;;;;;5073783;28;20275;-76
2023/07/31 11:20:38;;;;;;;6.30;3.35;;;23.00;99.90;;;;;;5075802;28;20568;-76
2023/07/31 11:23:08;;;;;;;6.88;3.22;;;22.60;99.90;;;;;;5075594;28;20250;-76
2023/07/31 11:25:35;;;;;;;5.18;2.88;;;22.40;99.90;;;;;;5075706;28;20197;-76
2023/07/31 11:28:06;;;;;;;5.43;3.33;;;22.00;99.90;;;;;;5075960;28;20201;-75
2023/07/31 11:30:33;;;;;;;6.00;3.63;;;21.80;99.90;;;;;;5075504;28;20576;-75
2023/07/31 11:33:02;;;;;;;4.63;3.60;;;21.60;99.90;;;;;;5075681;28;20208;-75
2023/07/31 11:35:31;;;;;;;4.20;2.80;;;21.60;99.90;;;;;;5075402;28;20215;-76
2023/07/31 11:37:58;;;;;;;4.90;3.20;;;21.80;99.90;;;;;;5075408;28;20193;-75
2023/07/31 11:40:28;;;;;;;4.97;2.80;;;21.90;99.90;;;;;;5075277;28;20196;-76
2023/07/31 11:42:55;;;;;;;6.28;3.30;;;21.70;99.90;;;;;;5075468;28;20233;-76
2023/07/31 11:45:25;;;;;;;5.72;3.22;;;22.20;99.90;;;;;;5075213;28;20197;-76
2023/07/31 11:47:51;;;;;;;4.18;2.90;;;22.30;99.90;;;;;;5075097;28;20247;-76
2023/07/31 11:50:18;;;;;;;4.78;2.92;;;22.20;99.90;;;;;;5075046;28;20230;-76
2023/07/31 11:52:49;;;;;;;5.40;3.15;;;22.00;99.90;;;;;;5075577;28;20197;-75
2023/07/31 11:55:16;;;;;;;5.00;3.17;;;21.90;99.90;;;;;;5075365;28;20197;-76
2023/07/31 11:57:45;;;;;;;5.82;3.03;;;22.00;99.90;;;;;;5083800;28;20282;-77
2023/07/31 12:00:14;;;;;;;4.10;3.17;;;22.20;99.90;;;;;;5083766;28;20189;-78
2023/07/31 12:02:41;;;;;;;4.15;3.00;;;22.40;99.90;;;;;;5074228;28;20313;-77
2023/07/31 12:05:11;;;;;;;4.50;3.30;;;22.40;99.90;;;;;;5074581;28;20193;-77
2023/07/31 12:07:49;;;;;;;5.57;2.92;;;22.60;99.90;;;;;;5075184;28;20552;-76
2023/07/31 12:10:29;;;;;;;5.68;3.03;;;22.60;99.90;;;;;;5074660;28;20254;-78
2023/07/31 12:13:00;;;;;;;4.10;2.90;;;23.00;99.90;;;;;;5074691;28;20228;-75
2023/07/31 12:15:34;;;;;;;6.68;3.28;;;23.80;99.90;;;;;;5074323;28;20546;-77
2023/07/31 12:18:04;;;;;;;5.22;3.00;;;23.50;99.90;;;;;;5054754;28;20193;-77
2023/07/31 12:20:31;;;;;;;4.13;3.10;;;23.30;99.90;;;;;;5054705;28;20197;-77
2023/07/31 12:22:59;;;;;;;5.20;3.17;;;23.20;99.90;;;;;;5054388;28;20225;-76
2023/07/31 12:25:30;;;;;;;4.25;3.15;;;22.80;99.90;;;;;;5054257;28;20558;-77
2023/07/31 12:27:57;;;;;;;5.45;3.05;;;23.40;99.90;;;;;;5054057;28;20202;-77
2023/07/31 12:30:32;;;;;;;4.93;3.20;;;22.90;99.90;;;;;;5054253;28;20225;-75
2023/07/31 12:33:03;;;;;;;5.05;3.05;;;22.90;99.90;;;;;;5054528;28;20201;-82
2023/07/31 12:35:36;;;;;;;6.13;3.47;;;22.70;99.90;;;;;;5054386;28;20271;-78
2023/07/31 12:38:04;;;;;;;5.43;3.55;;;22.00;99.90;;;;;;5054414;28;20202;-78
2023/07/31 12:40:31;;;;;;;3.88;3.03;;;22.30;99.90;;;;;;5054185;28;20256;-79
2023/07/31 12:42:57;;;;;;;3.35;2.67;;;22.50;99.90;;;;;;5059965;28;20282;-77
2023/07/31 12:45:24;;;;;;;4.80;3.15;;;22.40;99.90;;;;;;5074219;28;20200;-76
2023/07/31 12:47:51;;;;;;;5.47;3.25;;;22.50;99.90;;;;;;5074082;28;20201;-76
2023/07/31 12:50:17;;;;;;;5.03;3.00;;;23.20;99.90;;;;;;5074080;28;20193;-76